Terminal Aerodrome Forecast
Issued by NWS

Home | Current Version | Previous Version | Graphics & Text | Print | Product List | Glossary On
Versions: 1 2 3 4 5 6 7 8 9 10 11 12 13 14 15 16 17
000
FTUS43 KMPX 222346
TAFAXN
TAF
KAXN 222346Z 2300/2324 10009KT 1SM -SN BR SCT012 OVC020
     FM230130 11008KT 3/4SM -SN BR OVC006
     FM230600 12005KT 2SM -SN BR OVC008
     FM231200 30006KT P6SM OVC010
     FM231500 31008KT P6SM OVC012
     FM231800 31011KT P6SM BKN015
     FM232200 30009KT P6SM SCT020=

USA.gov is the U.S. government's official web portal to all federal, state and local government web resources and services.